Terminal Aerodrome Forecast
Issued by NWS

Home | Current Version | Previous Version | Text Only | Print | Product List | Glossary On
Versions: 1 2 3 4 5 6 7 8 9 10 11 12 13 14 15 16 17 18 19 20 21 22 23 24
000
FTUS41 KPBZ 300500
TAFLBE
TAF
KLBE 300536Z 3006/3106 27012G22KT 4SM -SHSN BKN015 OVC025
      TEMPO 3006/3009 1SM -SHSN BKN008 OVC015
     FM300900 29012G24KT 3SM -SHSN OVC012
     FM301800 30012G24KT P6SM -SHSN OVC015
     FM310200 30011G22KT P6SM BKN020=

USA.gov is the U.S. government's official web portal to all federal, state and local government web resources and services.